Rio Branco の空港の天気 - METARとTAF

リオブランコ国際空港 ( SBRB / RBR ) - ブラジル アクレ州、Rio Branco
飛行場実況気象(Metar)
観測時間12/01 18:00 ACT (12/01 23:00 UTC)
風向・風速南西 2m/s
視程10km以上
天気現象
少しの雲 雲底高度 910m
全天の4割程度の雲 雲底高度 1830m
全天の8割程度の雲 雲底高度 3050m
気温27℃
湿度79%
気圧1009hPa
METARSBRB 012300Z 22003KT 9999 FEW030TCU SCT060 BKN100 27/23 Q1009
過去の天気等 Google飛行場航空写真 Wunderground天気予報

過去48時間のMETAR

飛行場予報(TAF)
発表時間: 12/01 16:00 ACT (12/01 21:00 UTC)
予報対象時間: 1日19時 ACT ~ 2日7時 ACT
風向・風速北 3m/s
視程10km以上
全天の4割程度の雲 雲底高度 460m
2日0時 ACT ~ 2日2時 ACT に徐々に
風向・風速北東 2m/s
視程10km以上
なし
TAF SBRB 012100Z 0200/0212 35005KT 9999 SCT015 TN23/0208Z TX26/0212Z
BECMG 0205/0207 04003KT CAVOK RMK PGY